KIWI

Wiscasset Airport

Wiscasset, Maine, USA
METAR KIWI 230653Z AUTO 00000KT 10SM CLR M04/M08 A3073 RMK AO2 SLP407 T10441083
Observed Flight Rules
Feb-23 @ 06:53 UTC (an hour ago) Visual Flight Rules
Wind Visibility Clouds
Calm 10 miles
  • Clear skies
Temperatures Readings
Current -4°C / 25°F
Dewpoint -8°C / 18°F
Humidity 74%
Altimeter 30.73" Hg
Pressure 1040.7 hPa
Elevation 20
METAR KIWI 230653Z AUTO 00000KT 10SM CLR M04/M08 A3073 RMK AO2 SLP407 T10441083
Observed Flight Rules
Feb-23 @ 06:53 UTC
(an hour ago)
VFR
Wind Visibility
Calm 10 miles
Clouds
  • Clear skies
Temperature Dewpoint
-4°C / 25°F -8°C / 18°F
Humidity Altimeter Pressure
74% 30.73" Hg 1040.7 hPa